Airfield :
LOGIN :

Register | Disclaimer

   EN    FR    IT 

 










Legend :    VFR   Marginal VFR   IFR   Intensive IFR   Very Intensive IFR
Visi :
Ceiling :
>= 8 km
>= 3000ft
5 to 8 km
1000 to 3000 ft
1500m to 5 km
500 to 1000 ft
800 to 1500m
200 to 500 ft
< 800m
< 200 ft
Symbols :   Thunderstorms  Fog  Heavy snow  Heavy precipitations  Wind > 20 kt
SIGMETs :     Misc.  Thunderstorms  Icing  Turbulence  Mountain Waves  Volcanic Ashes






- Airport Elevation : 479 ft
- IATA code : DOL


LFRG - Deauville

CURRENT METAR :
  • 270830Z AUTO 21011KT 180V240 5000 -DZ BR OVC004 08/08 Q0990 TEMPO SHRA BKN012 BECMG 32020G42KT

EXPIRED METARs :
  • 270800Z AUTO 20013KT 9999 -DZ OVC004 07/07 Q0990 TEMPO 4000 SHRA SCT010 BKN020 BECMG 32020G42KT
  • 270730Z AUTO 22010KT 180V260 5000 -RA BR OVC005 06/06 Q0991 TEMPO SHRA SCT010 BKN020 BECMG 32020G42KT
  • 270700Z AUTO 19016KT 5000 -RA BR OVC006/// ///TCU 06/05 Q0992 BECMG 27020G42KT SCT010 BKN020
  • 270630Z AUTO 17013KT 5000 -RA BR OVC006/// ///TCU 05/04 Q0992 BECMG 27020G42KT SCT010 BKN020
  • 270600Z AUTO 16016KT 8000 -RA BKN007/// OVC012/// ///TCU 04/03 Q0994 TEMPO 3000 SNRA BKN004 BECMG 27020G42KT
  • 270530Z AUTO 15020KT 9999 -RA BKN009/// OVC013/// ///CB 04/03 Q0994 TEMPO 3000 SNRA BKN004 BECMG 27020G42KT

TAF TAF LFRG
Valid from the 27 at 06:00 until the 27 at 15:00 UTC


270500Z 2706/2715 18018G30KT 5000 RA BKN012
TEMPO 2706/2708 3000 SNRA BKN004
BECMG 2707/2709 27020G42KT 9999 NSW SCT010 BKN020
BECMG 2709/2711 32020G42KT
TEMPO 2709/2712 4000 SHRA BKN012
ATIS : +33 2 31 65 65 36



MET'MAP, your aeronautical weather chart ! - Copyright ORBIFLY December 2007 - Disclaimer

ORBIFLY MET'MAP TEAM :

Programming & Development : Alexandra Zaïnal
Concept & original design : Baudouin d'Aumeries
Assistance for programming : Marc-Olivier Méhu
Technical & hardware support : Manuel Goepfert

Contact : metmap@orbifly.com




SOURCES & CREDITS :

   NOAA